Aviation Digital Data Service (ADDS)

Output produced by TAFs form (0216 UTC 19 December 2014)
found at http://aviationweather.gov/adds/tafs/
 
KGUP 182341Z 1900/1924 25005KT P6SM VCSH SCT025 OVC050 
     TEMPO 1900/1903 33012KT 2SM -SN BR BKN030 
     FM190300 VRB03KT P6SM BKN050 
     FM190600 VRB03KT 2SM BR SCT005 SCT050 
     TEMPO 1910/1914 1/4SM FG VV001 
     FM191600 VRB03KT P6SM FEW030 SCT150